01:28 Rennrad Moetz - Barwies - Sagl - Hatting - Doerfer - Moetz
Ort Moetz Datum 01.06.2015 17:11:20
Kategorie Rennrad
Distanz 43,30 Kilometer Steigung 310,1 Meter Gefälle -310,0 Meter
Gesamt Zeit 01:28:06 Aktiv 01:28:06 Pause 00:00:00
Durchs. Tempo 29,5 km/h Tempo max. 62,7 km/h Tempo min. 8,9 km/h
Kalorien 0 Durchs. HF 126 BPM HF max. 162 BPM
Wetter 24 °C PartClouds Min/Max: 22,2 °C/25,2 °C; Druck: 1013,2 mbar; Rel. Feuchte: 46,6%; Taupunkt: 10,7 °C; Windgeschwindigkeit: 5,2 km/h; Niederschlag: 0,0mm
Ausrüstung Bontrager - RXL Road
Continental - Grand Prix 4000 S
Poison - Rennrad
Shimano - HG CN-7901 Dura Ace
Notiz Moetz - Barwies - Sagl - Hatting - Doerfer - Moetz ... ziemlich windig, flott (2,2) ... garmin connect
Splits
Distanz (km) Gesamt Zeit Split Zeit Split Tempo Split Tempo Höhenprofil (m)
1,00 00:03:47 00:03:47 00:03:47 15,8 32,27
2,00 00:07:54 00:04:07 00:04:07 14,6 50,05
3,00 00:11:56 00:04:02 00:04:02 14,9 62,63
4,00 00:14:42 00:02:46 00:02:46 21,6 26,82
5,00 00:18:33 00:03:50 00:03:50 15,6 56,93
6,00 00:20:32 00:01:59 00:01:59 30,2 -1,35
7,00 00:22:23 00:01:51 00:01:52 32,3 -9,29
8,00 00:23:59 00:01:35 00:01:36 37,6 -9,78
9,00 00:25:26 00:01:26 00:01:27 41,6 -27,70
10,00 00:26:39 00:01:12 00:01:13 49,4 -37,71
11,00 00:27:56 00:01:16 00:01:17 46,8 -31,89
12,00 00:29:18 00:01:22 00:01:22 43,7 -32,83
13,00 00:30:21 00:01:03 00:01:03 57,0 -50,37
14,00 00:32:24 00:02:03 00:02:03 29,2 -39,86
15,00 00:35:08 00:02:43 00:02:43 22,1 26,58
16,00 00:37:49 00:02:41 00:02:42 22,3 -5,12
17,00 00:39:29 00:01:39 00:01:40 36,0 -25,89
18,00 00:41:11 00:01:41 00:01:42 35,4 -13,20
19,00 00:42:50 00:01:39 00:01:40 36,1 -6,22
20,00 00:44:18 00:01:27 00:01:28 41,0 3,53
21,00 00:45:47 00:01:28 00:01:29 40,7 -3,17
22,00 00:47:14 00:01:27 00:01:28 41,0 -4,15
23,00 00:48:42 00:01:27 00:01:28 41,0 -0,57
24,00 00:50:32 00:01:49 00:01:50 32,8 -4,65
25,00 00:52:21 00:01:48 00:01:49 33,1 6,06
26,00 00:54:18 00:01:57 00:01:57 30,7 2,06
27,00 00:56:04 00:01:45 00:01:46 34,1 -1,83
28,00 00:58:04 00:02:00 00:02:01 29,8 11,46
29,00 01:00:47 00:02:42 00:02:42 22,2 35,43
30,00 01:01:57 00:01:10 00:01:10 51,1 -36,76
31,00 01:03:37 00:01:39 00:01:40 36,1 4,14
32,00 01:05:50 00:02:13 00:02:14 26,9 16,99
33,00 01:07:46 00:01:55 00:01:55 31,2 -20,76
34,00 01:09:46 00:02:00 00:02:00 30,0 2,17
35,00 01:11:47 00:02:01 00:02:01 29,7 2,48
36,00 01:13:47 00:02:00 00:02:00 30,0 6,63
37,00 01:15:49 00:02:01 00:02:02 29,5 2,28
38,00 01:17:46 00:01:57 00:01:57 30,7 2,54
39,00 01:19:41 00:01:55 00:01:55 31,3 -2,68
40,00 01:21:38 00:01:56 00:01:56 30,9 2,71
41,00 01:23:33 00:01:54 00:01:55 31,3 2,31
42,00 01:25:22 00:01:49 00:01:49 32,9 0,14
43,00 01:27:21 00:01:59 00:01:59 30,3 6,56
43,30 01:28:06 00:00:44 00:02:27 24,5 3,09